Albert Bero

Chefscout - Slovan Bratislava
4 Apr 2028
Dienstag
Verarbeitung

Persönlichkeit

Anpassungsfähigkeit (7) Ehrgeiz (6) Kontroverse (6) Loyalität (18) Druck (12) Professionalität (19) Fairness (15) Temperament (5)

Profil

Trainerstil Demokratisch
Lizenz Nationale B
Entschlossenheit 10
Menschenführung 10
Motivation 5
Disziplin 11
Arbeitszufriedenheit
100%
Ermüdung
0%
Rolle Chefscout
Gehalt 79.7K p/W
Vertrag 14.03.2029

Leistung

Verhalten Gut
Trainingseffektivität
46%
Spielerentwicklung
45%
Verletzungsprävention
50%
Taktische Umsetzung
55%

Letzte Ereignisse

Geburtstag 56T her

Aktuell beobachtet

115
Spieler Verein Status Fähigkeit Vertrauen Beobachtet Zuletzt beobachtet Letzte Stimme
Lautaro Disanto Defensores Unidos Aktiv 119 / 114 40% 2 24.01.2028 -
Alejo Dramisino Atlanta Aktiv 126 / 123 40% 1 24.01.2028 -
Joel Kojo Navbahor Verloren 106 / 121 40% 1 17.01.2028 -
Adalberto Peñaranda Deportivo Tachira Verloren 122 / 116 40% 1 17.01.2028 -
Aaron Collins Milton Keynes Dons Verloren 128 / 123 40% 1 17.01.2028 -
Jaminton Campaz Rosario Central Aktiv 129 / 133 40% 1 09.01.2028 -
Patricio Moyano Defensores Aktiv 120 / 124 40% 1 09.01.2028 -
Luka Silagadze Podbrezova Aktiv 113 / 115 72% 1 02.01.2028 Befürworten
Leandro Lozano Boca Juniors Aktiv 126 / 130 40% 1 01.01.2028 -
Brian Orosco Godoy Cruz Aktiv 117 / 117 40% 1 31.08.2027 Mehr Infos nötig
Ángelo Lucena Carabobo Aktiv 104 / 103 40% 1 30.08.2027 Mehr Infos nötig
Agustín Araujo Trujillanos Aktiv 111 / 110 40% 1 28.08.2027 -
Juan Camilo Pérez Carabobo Aktiv 125 / 122 40% 2 27.08.2027 -
Delvin Alfonzo Deportivo Tachira Aktiv 118 / 108 40% 1 27.08.2027 -
Ignacio Vallejos Colegiales Aktiv 117 / 106 40% 1 27.08.2027 -
Martín Campos Ferro Carril Oeste Aktiv 123 / 118 40% 1 26.08.2027 -
Alisher Odilov Neftchi Aktiv 125 / 110 40% 1 25.08.2027 -
César Magallan Estudiantes de Merida Aktiv 105 / 100 40% 1 25.08.2027 -
Matías Bergara Nueva Chicago Aktiv 114 / 111 40% 1 25.08.2027 -
Matías Viguet Maipú Aktiv 121 / 106 40% 1 23.08.2027 -
Emanuele Schimmenti Potenza Aktiv 118 / 120 40% 2 19.08.2027 -
Riccardo Marchizza Frosinone Aktiv 123 / 132 40% 1 19.08.2027 -
Ilias Akhomach Villarreal Aktiv 149 / 152 40% 1 16.08.2027 -
Tomáš Suslov Hellas Verona Aktiv 136 / 141 40% 1 15.08.2027 -
Kaleb Jimenez Catania Aktiv 115 / 113 40% 2 14.08.2027 -
Jurgen Ekkelenkamp Udinese Aktiv 143 / 141 40% 1 14.08.2027 -
Tony Springett Lecco Aktiv 110 / 108 40% 1 13.08.2027 -
Stiven Shpendi Empoli Aktiv 122 / 124 40% 1 11.08.2027 -
Manuel Cicconi Sampdoria Aktiv 122 / 130 40% 3 10.08.2027 -
Kayne Ramsay Charlton Athletic Aktiv 133 / 134 40% 2 07.08.2027 -
Derensili Sanches Fernandes Huddersfield Town Aktiv 136 / 122 40% 3 06.08.2027 -
Paddy Lane Reading Aktiv 110 / 117 40% 1 06.08.2027 -
Tyler Goodrham Oxford United Aktiv 123 / 131 40% 1 06.08.2027 -
Christian Saydee Wigan Athletic Aktiv 122 / 121 40% 1 05.08.2027 -
Isaiah Jones Luton Town Aktiv 126 / 123 40% 1 05.08.2027 -
Koki Saito Queens Park Rangers Aktiv 129 / 127 40% 2 04.08.2027 -
Tyreece Campbell Charlton Athletic Aktiv 119 / 128 40% 1 04.08.2027 -
Oladapo Afolayan Blackburn Rovers Aktiv 126 / 121 40% 1 04.08.2027 -
Myles Peart-Harris Bristol Rovers Aktiv 121 / 120 40% 2 02.08.2027 -
Gustavo Hamer Sheffield United Aktiv 138 / 134 40% 1 02.08.2027 -
Idrissa Touré Monza Aktiv 135 / 137 40% 2 31.07.2027 -
Ilias Chair Queens Park Rangers Aktiv 128 / 127 40% 1 31.07.2027 -
Richard Koné Queens Park Rangers Aktiv 123 / 121 40% 1 29.07.2027 -
Todd Cantwell Blackburn Rovers Aktiv 140 / 132 40% 1 28.07.2027 -
Joel Bagan Cardiff City Aktiv 119 / 112 40% 1 28.07.2027 -
Othmane Maamma Watford Aktiv 124 / 130 40% 1 26.07.2027 -
Josh Tymon Swansea City Aktiv 134 / 122 40% 1 26.07.2027 -
Mathias Kvistgaarden Norwich City Aktiv 125 / 130 40% 1 26.07.2027 -
Isaak Davies Cardiff City Aktiv 117 / 115 40% 2 25.07.2027 -
Joseph Hungbo Wigan Athletic Aktiv 116 / 110 40% 1 25.07.2027 -
Imrân Louza Watford Aktiv 134 / 128 40% 1 25.07.2027 -
Ethan Williams Peterborough United Aktiv 121 / 125 40% 1 23.07.2027 -
Ronan Hale Gillingham Aktiv 122 / 109 40% 1 23.07.2027 -
Anis Mehmeti Ipswich Town Aktiv 139 / 136 40% 1 21.07.2027 -
Alex Robertson Cardiff City Aktiv 123 / 122 40% 1 21.07.2027 -
Aaron Connolly Leyton Orient Aktiv 124 / 129 40% 1 21.07.2027 -
Renzo Reynaga Lincoln City Aktiv 120 / 118 40% 1 19.07.2027 -
Andri Guðjohnsen Blackburn Rovers Aktiv 123 / 122 40% 1 19.07.2027 -
Tomáš Rigo Stoke City Aktiv 138 / 134 40% 1 18.07.2027 -
Andre Brooks Sheffield United Aktiv 130 / 127 40% 1 18.07.2027 -
Erickson Gallardo Zamora Aktiv 109 / 114 40% 2 15.07.2027 -
Khalid Al-Ghannam Al-Ettifaq Aktiv 127 / 110 40% 1 15.07.2027 -
Josh Neufville Bradford City Aktiv 117 / 115 40% 1 12.07.2027 -
Aldo Florenzi Cosenza Aktiv 125 / 121 40% 1 12.07.2027 -
Simone Mazzocchi Cosenza Aktiv 124 / 120 40% 1 11.07.2027 -
Andrea Franzoni Virtus Entella Aktiv 117 / 124 40% 1 11.07.2027 -
Pablo Vitali Pontedera Aktiv 109 / 107 40% 1 09.07.2027 -
Guillaume Furrer Lecco Aktiv 108 / 103 40% 1 09.07.2027 -
Simone Giordano Juve Stabia Aktiv 118 / 122 40% 2 08.07.2027 -
Mirko Antonucci Cittadella Aktiv 119 / 119 40% 1 04.07.2027 -
Giovanni Bruzzaniti Catania Aktiv 111 / 119 40% 1 02.07.2027 -
Roman Procházka Spartak Trnava Aktiv 116 / 101 69% 1 28.06.2027 Befürworten
Dany Mota Monza Aktiv 135 / 137 40% 2 21.06.2027 -
Marc Bola Watford Aktiv 122 / 127 40% 1 21.06.2027 -
Akor Adams Venezia Aktiv 142 / 140 40% 1 05.06.2027 -
Filip Stojilković Pisa Aktiv 131 / 122 40% 1 03.06.2027 -
Emanuele Adamo Spezia Aktiv 125 / 122 40% 1 02.06.2027 -
Joe Knight Stevenage Aktiv 98 / 111 40% 2 27.01.2027 -
Jamie Wähling Hibernians Aktiv 84 / 89 40% 1 27.01.2027 -
Kazunari Kita Real Sociedad Aktiv 95 / 98 40% 2 25.01.2027 -
Saël Kumbedi VfL Wolfsburg Aktiv 137 / 138 40% 1 25.01.2027 -
Aleksandre Narimanidze MSK Zilina Aktiv 100 / 99 40% 2 21.01.2027 -
Ezra Mayers West Ham United Aktiv 116 / 123 40% 1 19.01.2027 -
Savely Nikiforov Zenit Aktiv 84 / 89 40% 1 11.01.2027 -
Wilmar Borja La Equidad Aktiv 106 / 112 40% 1 10.01.2027 -
Ivan Shilenok Zenit Aktiv 90 / 92 40% 1 10.01.2027 -
Andrej Sestak FK Senica Aktiv 109 / 104 40% 3 06.01.2027 -
Marius Courcoul Olympique de Marseille Aktiv 119 / 116 40% 1 06.01.2027 -
Juan Rodríguez Cagliari Aktiv 116 / 117 40% 2 05.01.2027 -
Tadeáš Hájovský AS Trencin Aktiv 104 / 99 40% 2 03.01.2027 -
Bernardo Lima Porto Aktiv 95 / 99 40% 1 03.01.2027 -
Gideon Manaseh Ikorodu City Aktiv 87 / 103 40% 1 31.08.2026 Mehr Infos nötig
Zakaria Taifi Orlando City Aktiv 82 / 105 40% 1 31.08.2026 Mehr Infos nötig
Alejo Gelsomino Gimnasia La Plata Aktiv 93 / 96 40% 1 31.08.2026 Mehr Infos nötig
Gia Nadareishvili AS Trencin Aktiv 104 / 112 40% 2 29.08.2026 -
Christopher Shaw Liverpool Aktiv 107 / 108 40% 1 29.08.2026 -
Ramiro Centurión San Lorenzo Aktiv 88 / 107 40% 1 28.08.2026 -
Justin-Noël Kalumba Mallorca Aktiv 113 / 121 40% 1 27.08.2026 -
Demián Troya Platense Aktiv 103 / 108 40% 1 27.08.2026 -
Jonny Shore New York City Aktiv 96 / 111 40% 1 27.08.2026 -
Tyler Fletcher Manchester United Aktiv 100 / 104 40% 2 26.08.2026 -
Ángel Peñaranda Mineros de Guayana Aktiv 76 / 93 40% 1 22.08.2026 -
Thiago Villalba Vélez Aktiv 97 / 94 40% 1 21.08.2026 -
Josh Laqeretabua Charlton Athletic Aktiv 91 / 98 40% 1 21.08.2026 -
Adam Morong MFK Skalica Aktiv 93 / 93 30% 1 / 1m 19.08.2026 -
Aleksandar Stanisavljević Spartak Myjava Aktiv 93 / 93 30% 1 / 1m 19.08.2026 -
Tommy McDermott Burnley Aktiv 91 / 110 40% 1 12.08.2026 -
Filip Mielke Podbrezova Aktiv 100 / 95 40% 1 10.08.2026 -
Giovanni Marques Argentinos Juniors Aktiv 84 / 98 40% 1 10.08.2026 -
Rory Finneran Newcastle United Aktiv 93 / 106 40% 1 10.08.2026 -
Agustín Seyral Sarmiento Aktiv 97 / 96 40% 1 09.08.2026 -
Teun Gijselhart Deportivo La Coruña Aktiv 105 / 116 40% 1 08.08.2026 -
Marcos López Banfield Aktiv 103 / 100 40% 1 05.08.2026 -
Santiago Cena Independiente Rivadavia Aktiv 97 / 99 40% 1 02.08.2026 -
Nobel Mendy Hull City Aktiv 120 / 132 40% 1 01.08.2026 -